sensor_id;sensor_type;location;lat;lon;timestamp;P1;durP1;ratioP1;P2;durP2;ratioP2
16699;SDS011;8466;52.286;21.124;2024-01-06T00:01:30;30.03;;;17.20;;
16699;SDS011;8466;52.286;21.124;2024-01-06T00:04:04;14.63;;;10.57;;
16699;SDS011;8466;52.286;21.124;2024-01-06T00:06:34;13.47;;;9.20;;
16699;SDS011;8466;52.286;21.124;2024-01-06T00:09:03;14.07;;;9.53;;
16699;SDS011;8466;52.286;21.124;2024-01-06T00:11:33;11.10;;;8.80;;
16699;SDS011;8466;52.286;21.124;2024-01-06T00:14:01;11.33;;;8.33;;
16699;SDS011;8466;52.286;21.124;2024-01-06T00:16:30;12.33;;;7.93;;
16699;SDS011;8466;52.286;21.124;2024-01-06T00:18:59;12.90;;;9.83;;
16699;SDS011;8466;52.286;21.124;2024-01-06T00:21:30;14.83;;;10.63;;
16699;SDS011;8466;52.286;21.124;2024-01-06T00:24:03;14.33;;;9.07;;
16699;SDS011;8466;52.286;21.124;2024-01-06T00:26:32;14.90;;;9.40;;
16699;SDS011;8466;52.286;21.124;2024-01-06T00:29:01;15.00;;;11.03;;
16699;SDS011;8466;52.286;21.124;2024-01-06T00:31:30;17.47;;;12.77;;
16699;SDS011;8466;52.286;21.124;2024-01-06T00:33:59;16.07;;;11.20;;
16699;SDS011;8466;52.286;21.124;2024-01-06T00:36:27;11.27;;;8.57;;
16699;SDS011;8466;52.286;21.124;2024-01-06T00:38:58;13.10;;;9.00;;
16699;SDS011;8466;52.286;21.124;2024-01-06T00:41:27;13.73;;;10.00;;
16699;SDS011;8466;52.286;21.124;2024-01-06T00:43:56;14.50;;;8.77;;
16699;SDS011;8466;52.286;21.124;2024-01-06T00:46:24;12.43;;;8.80;;
16699;SDS011;8466;52.286;21.124;2024-01-06T00:48:53;12.83;;;9.30;;
16699;SDS011;8466;52.286;21.124;2024-01-06T00:51:22;12.70;;;8.90;;
16699;SDS011;8466;52.286;21.124;2024-01-06T00:53:51;12.00;;;8.63;;
16699;SDS011;8466;52.286;21.124;2024-01-06T00:56:21;12.10;;;8.67;;
16699;SDS011;8466;52.286;21.124;2024-01-06T00:58:50;11.10;;;8.20;;
16699;SDS011;8466;52.286;21.124;2024-01-06T01:01:19;11.63;;;8.03;;
16699;SDS011;8466;52.286;21.124;2024-01-06T01:03:47;9.93;;;7.47;;
16699;SDS011;8466;52.286;21.124;2024-01-06T01:06:16;11.90;;;8.43;;
16699;SDS011;8466;52.286;21.124;2024-01-06T01:08:45;11.47;;;7.90;;
16699;SDS011;8466;52.286;21.124;2024-01-06T01:11:14;11.77;;;7.97;;
16699;SDS011;8466;52.286;21.124;2024-01-06T01:13:44;11.40;;;7.70;;
16699;SDS011;8466;52.286;21.124;2024-01-06T01:16:13;10.13;;;7.33;;
16699;SDS011;8466;52.286;21.124;2024-01-06T01:18:41;11.07;;;7.70;;
16699;SDS011;8466;52.286;21.124;2024-01-06T01:21:10;13.37;;;7.60;;
16699;SDS011;8466;52.286;21.124;2024-01-06T01:23:39;10.07;;;7.50;;
16699;SDS011;8466;52.286;21.124;2024-01-06T01:26:07;10.13;;;7.20;;
16699;SDS011;8466;52.286;21.124;2024-01-06T01:28:36;10.33;;;7.57;;
16699;SDS011;8466;52.286;21.124;2024-01-06T01:31:07;10.13;;;7.30;;
16699;SDS011;8466;52.286;21.124;2024-01-06T01:33:36;9.33;;;6.97;;
16699;SDS011;8466;52.286;21.124;2024-01-06T01:36:05;9.73;;;7.13;;
16699;SDS011;8466;52.286;21.124;2024-01-06T01:38:34;10.07;;;7.40;;
16699;SDS011;8466;52.286;21.124;2024-01-06T01:41:02;11.17;;;6.73;;
16699;SDS011;8466;52.286;21.124;2024-01-06T01:43:31;11.03;;;7.53;;
16699;SDS011;8466;52.286;21.124;2024-01-06T01:46:00;11.40;;;6.83;;
16699;SDS011;8466;52.286;21.124;2024-01-06T01:48:30;8.43;;;5.97;;
16699;SDS011;8466;52.286;21.124;2024-01-06T01:51:01;9.60;;;7.03;;
16699;SDS011;8466;52.286;21.124;2024-01-06T01:53:30;11.03;;;6.17;;
16699;SDS011;8466;52.286;21.124;2024-01-06T01:55:59;9.97;;;6.77;;
16699;SDS011;8466;52.286;21.124;2024-01-06T01:58:30;7.60;;;5.73;;
16699;SDS011;8466;52.286;21.124;2024-01-06T02:00:59;9.00;;;6.77;;
16699;SDS011;8466;52.286;21.124;2024-01-06T02:03:30;8.80;;;6.17;;
16699;SDS011;8466;52.286;21.124;2024-01-06T02:05:58;7.63;;;6.20;;
16699;SDS011;8466;52.286;21.124;2024-01-06T02:08:27;6.77;;;5.73;;
16699;SDS011;8466;52.286;21.124;2024-01-06T02:10:56;8.90;;;6.20;;
16699;SDS011;8466;52.286;21.124;2024-01-06T02:13:29;7.97;;;5.77;;
16699;SDS011;8466;52.286;21.124;2024-01-06T02:16:01;8.57;;;6.43;;
16699;SDS011;8466;52.286;21.124;2024-01-06T02:18:32;10.37;;;6.60;;
16699;SDS011;8466;52.286;21.124;2024-01-06T02:21:02;10.93;;;7.67;;
16699;SDS011;8466;52.286;21.124;2024-01-06T02:23:34;9.63;;;7.43;;
16699;SDS011;8466;52.286;21.124;2024-01-06T02:26:04;9.83;;;7.03;;
16699;SDS011;8466;52.286;21.124;2024-01-06T02:28:32;9.13;;;6.80;;
16699;SDS011;8466;52.286;21.124;2024-01-06T02:31:01;11.73;;;8.37;;
16699;SDS011;8466;52.286;21.124;2024-01-06T02:33:30;12.80;;;8.10;;
16699;SDS011;8466;52.286;21.124;2024-01-06T02:35:59;10.93;;;7.50;;
16699;SDS011;8466;52.286;21.124;2024-01-06T02:38:28;11.20;;;7.93;;
16699;SDS011;8466;52.286;21.124;2024-01-06T02:40:58;13.43;;;8.67;;
16699;SDS011;8466;52.286;21.124;2024-01-06T02:43:26;11.67;;;8.40;;
16699;SDS011;8466;52.286;21.124;2024-01-06T02:45:55;10.00;;;8.37;;
16699;SDS011;8466;52.286;21.124;2024-01-06T02:48:24;12.47;;;8.80;;
16699;SDS011;8466;52.286;21.124;2024-01-06T02:50:53;12.93;;;8.23;;
16699;SDS011;8466;52.286;21.124;2024-01-06T02:53:21;14.07;;;8.20;;
16699;SDS011;8466;52.286;21.124;2024-01-06T02:55:50;10.77;;;8.23;;
16699;SDS011;8466;52.286;21.124;2024-01-06T02:58:20;10.13;;;7.83;;
16699;SDS011;8466;52.286;21.124;2024-01-06T03:00:49;11.83;;;8.53;;
16699;SDS011;8466;52.286;21.124;2024-01-06T03:03:18;10.27;;;7.87;;
16699;SDS011;8466;52.286;21.124;2024-01-06T03:05:47;10.50;;;8.03;;
16699;SDS011;8466;52.286;21.124;2024-01-06T03:08:16;11.33;;;8.13;;
16699;SDS011;8466;52.286;21.124;2024-01-06T03:10:44;10.77;;;7.80;;
16699;SDS011;8466;52.286;21.124;2024-01-06T03:13:13;9.87;;;7.27;;
16699;SDS011;8466;52.286;21.124;2024-01-06T03:15:43;11.47;;;8.03;;
16699;SDS011;8466;52.286;21.124;2024-01-06T03:18:12;10.93;;;8.33;;
16699;SDS011;8466;52.286;21.124;2024-01-06T03:20:41;10.40;;;8.03;;
16699;SDS011;8466;52.286;21.124;2024-01-06T03:23:10;10.43;;;8.03;;
16699;SDS011;8466;52.286;21.124;2024-01-06T03:25:38;11.73;;;8.00;;
16699;SDS011;8466;52.286;21.124;2024-01-06T03:28:07;14.13;;;8.43;;
16699;SDS011;8466;52.286;21.124;2024-01-06T03:30:36;12.07;;;8.83;;
16699;SDS011;8466;52.286;21.124;2024-01-06T03:33:06;12.67;;;8.33;;
16699;SDS011;8466;52.286;21.124;2024-01-06T03:35:35;10.40;;;8.00;;
16699;SDS011;8466;52.286;21.124;2024-01-06T03:38:04;11.53;;;8.47;;
16699;SDS011;8466;52.286;21.124;2024-01-06T03:40:33;11.70;;;8.87;;
16699;SDS011;8466;52.286;21.124;2024-01-06T03:43:01;11.73;;;8.13;;
16699;SDS011;8466;52.286;21.124;2024-01-06T03:45:30;13.43;;;8.23;;
16699;SDS011;8466;52.286;21.124;2024-01-06T03:47:59;11.13;;;8.30;;
16699;SDS011;8466;52.286;21.124;2024-01-06T03:50:29;10.30;;;8.07;;
16699;SDS011;8466;52.286;21.124;2024-01-06T03:52:58;10.23;;;8.23;;
16699;SDS011;8466;52.286;21.124;2024-01-06T03:55:27;11.00;;;8.43;;
16699;SDS011;8466;52.286;21.124;2024-01-06T03:57:56;11.77;;;8.90;;
16699;SDS011;8466;52.286;21.124;2024-01-06T04:00:25;11.00;;;8.60;;
16699;SDS011;8466;52.286;21.124;2024-01-06T04:02:54;10.60;;;8.50;;
16699;SDS011;8466;52.286;21.124;2024-01-06T04:05:24;12.73;;;9.33;;
16699;SDS011;8466;52.286;21.124;2024-01-06T04:07:54;12.17;;;8.73;;
16699;SDS011;8466;52.286;21.124;2024-01-06T04:10:22;11.07;;;8.90;;
16699;SDS011;8466;52.286;21.124;2024-01-06T04:12:51;10.93;;;8.53;;
16699;SDS011;8466;52.286;21.124;2024-01-06T04:15:20;12.30;;;9.00;;
16699;SDS011;8466;52.286;21.124;2024-01-06T04:17:48;11.50;;;8.37;;
16699;SDS011;8466;52.286;21.124;2024-01-06T04:20:19;14.67;;;9.43;;
16699;SDS011;8466;52.286;21.124;2024-01-06T04:22:47;11.20;;;8.23;;
16699;SDS011;8466;52.286;21.124;2024-01-06T04:25:17;11.43;;;8.07;;
16699;SDS011;8466;52.286;21.124;2024-01-06T04:27:46;11.23;;;8.73;;
16699;SDS011;8466;52.286;21.124;2024-01-06T04:30:15;11.93;;;9.20;;
16699;SDS011;8466;52.286;21.124;2024-01-06T04:32:44;19.43;;;12.27;;
16699;SDS011;8466;52.286;21.124;2024-01-06T04:35:15;18.13;;;12.60;;
16699;SDS011;8466;52.286;21.124;2024-01-06T04:37:44;12.40;;;9.13;;
16699;SDS011;8466;52.286;21.124;2024-01-06T04:40:12;12.80;;;9.63;;
16699;SDS011;8466;52.286;21.124;2024-01-06T04:42:42;12.27;;;8.40;;
16699;SDS011;8466;52.286;21.124;2024-01-06T04:45:11;11.90;;;8.43;;
16699;SDS011;8466;52.286;21.124;2024-01-06T04:47:40;11.93;;;9.13;;
16699;SDS011;8466;52.286;21.124;2024-01-06T04:50:09;12.50;;;9.87;;
16699;SDS011;8466;52.286;21.124;2024-01-06T04:52:37;16.30;;;9.23;;
16699;SDS011;8466;52.286;21.124;2024-01-06T04:55:06;13.40;;;9.60;;
16699;SDS011;8466;52.286;21.124;2024-01-06T04:57:36;12.93;;;9.53;;
16699;SDS011;8466;52.286;21.124;2024-01-06T05:00:07;19.73;;;14.43;;
16699;SDS011;8466;52.286;21.124;2024-01-06T05:02:36;14.33;;;9.47;;
16699;SDS011;8466;52.286;21.124;2024-01-06T05:05:05;12.87;;;9.60;;
16699;SDS011;8466;52.286;21.124;2024-01-06T05:07:34;13.40;;;10.20;;
16699;SDS011;8466;52.286;21.124;2024-01-06T05:10:03;12.83;;;9.50;;
16699;SDS011;8466;52.286;21.124;2024-01-06T05:12:32;11.90;;;9.47;;
16699;SDS011;8466;52.286;21.124;2024-01-06T05:15:01;13.30;;;10.30;;
16699;SDS011;8466;52.286;21.124;2024-01-06T05:17:32;14.30;;;10.63;;
16699;SDS011;8466;52.286;21.124;2024-01-06T05:20:00;16.33;;;11.40;;
16699;SDS011;8466;52.286;21.124;2024-01-06T05:22:30;14.63;;;10.67;;
16699;SDS011;8466;52.286;21.124;2024-01-06T05:24:59;15.90;;;12.30;;
16699;SDS011;8466;52.286;21.124;2024-01-06T05:27:27;12.63;;;10.13;;
16699;SDS011;8466;52.286;21.124;2024-01-06T05:29:55;14.57;;;9.77;;
16699;SDS011;8466;52.286;21.124;2024-01-06T05:32:24;21.23;;;12.90;;
16699;SDS011;8466;52.286;21.124;2024-01-06T05:34:54;25.47;;;16.67;;
16699;SDS011;8466;52.286;21.124;2024-01-06T05:37:23;15.73;;;10.83;;
16699;SDS011;8466;52.286;21.124;2024-01-06T05:39:51;14.37;;;11.67;;
16699;SDS011;8466;52.286;21.124;2024-01-06T05:42:21;28.40;;;23.93;;
16699;SDS011;8466;52.286;21.124;2024-01-06T05:44:50;16.60;;;12.67;;
16699;SDS011;8466;52.286;21.124;2024-01-06T05:47:19;17.03;;;10.90;;
16699;SDS011;8466;52.286;21.124;2024-01-06T05:49:47;14.67;;;10.87;;
16699;SDS011;8466;52.286;21.124;2024-01-06T05:52:17;16.30;;;10.53;;
16699;SDS011;8466;52.286;21.124;2024-01-06T05:54:46;17.87;;;12.40;;
16699;SDS011;8466;52.286;21.124;2024-01-06T05:57:15;15.63;;;11.10;;
16699;SDS011;8466;52.286;21.124;2024-01-06T05:59:44;18.03;;;12.53;;
16699;SDS011;8466;52.286;21.124;2024-01-06T06:02:13;15.23;;;11.10;;
16699;SDS011;8466;52.286;21.124;2024-01-06T06:04:42;16.10;;;11.47;;
16699;SDS011;8466;52.286;21.124;2024-01-06T06:07:11;17.27;;;11.60;;
16699;SDS011;8466;52.286;21.124;2024-01-06T06:09:41;15.00;;;11.13;;
16699;SDS011;8466;52.286;21.124;2024-01-06T06:12:10;16.07;;;11.63;;
16699;SDS011;8466;52.286;21.124;2024-01-06T06:14:39;17.07;;;11.63;;
16699;SDS011;8466;52.286;21.124;2024-01-06T06:17:07;15.33;;;11.30;;
16699;SDS011;8466;52.286;21.124;2024-01-06T06:19:36;14.90;;;11.07;;
16699;SDS011;8466;52.286;21.124;2024-01-06T06:22:05;16.20;;;11.30;;
16699;SDS011;8466;52.286;21.124;2024-01-06T06:24:34;14.50;;;10.07;;
16699;SDS011;8466;52.286;21.124;2024-01-06T06:27:07;15.53;;;11.23;;
16699;SDS011;8466;52.286;21.124;2024-01-06T06:29:39;16.33;;;11.70;;
16699;SDS011;8466;52.286;21.124;2024-01-06T06:32:08;23.90;;;15.17;;
16699;SDS011;8466;52.286;21.124;2024-01-06T06:34:42;19.37;;;13.03;;
16699;SDS011;8466;52.286;21.124;2024-01-06T06:38:02;15.93;;;10.20;;
16699;SDS011;8466;52.286;21.124;2024-01-06T06:41:04;14.57;;;11.00;;
16699;SDS011;8466;52.286;21.124;2024-01-06T06:43:59;13.27;;;10.50;;
16699;SDS011;8466;52.286;21.124;2024-01-06T06:47:11;14.87;;;10.50;;
16699;SDS011;8466;52.286;21.124;2024-01-06T06:50:25;12.67;;;10.03;;
16699;SDS011;8466;52.286;21.124;2024-01-06T06:53:35;15.77;;;10.47;;
16699;SDS011;8466;52.286;21.124;2024-01-06T06:57:07;15.17;;;10.57;;
16699;SDS011;8466;52.286;21.124;2024-01-06T07:04:33;16.50;;;11.97;;
16699;SDS011;8466;52.286;21.124;2024-01-06T07:07:08;16.03;;;11.33;;
16699;SDS011;8466;52.286;21.124;2024-01-06T07:09:53;16.33;;;11.07;;
16699;SDS011;8466;52.286;21.124;2024-01-06T07:13:22;16.50;;;11.50;;
16699;SDS011;8466;52.286;21.124;2024-01-06T07:16:04;16.57;;;10.97;;
16699;SDS011;8466;52.286;21.124;2024-01-06T07:23:09;16.50;;;11.23;;
16699;SDS011;8466;52.286;21.124;2024-01-06T07:29:59;17.17;;;11.53;;
16699;SDS011;8466;52.286;21.124;2024-01-06T07:32:27;17.00;;;11.17;;
16699;SDS011;8466;52.286;21.124;2024-01-06T07:34:59;17.03;;;11.40;;
16699;SDS011;8466;52.286;21.124;2024-01-06T07:37:33;16.37;;;11.50;;
16699;SDS011;8466;52.286;21.124;2024-01-06T07:40:04;16.30;;;11.97;;
16699;SDS011;8466;52.286;21.124;2024-01-06T07:42:37;15.77;;;13.45;;
16699;SDS011;8466;52.286;21.124;2024-01-06T07:45:06;15.43;;;12.27;;
16699;SDS011;8466;52.286;21.124;2024-01-06T07:47:35;15.50;;;11.80;;
16699;SDS011;8466;52.286;21.124;2024-01-06T07:50:05;14.90;;;11.10;;
16699;SDS011;8466;52.286;21.124;2024-01-06T07:52:35;13.97;;;10.50;;
16699;SDS011;8466;52.286;21.124;2024-01-06T07:55:05;13.90;;;9.90;;
16699;SDS011;8466;52.286;21.124;2024-01-06T07:57:34;16.03;;;11.23;;
16699;SDS011;8466;52.286;21.124;2024-01-06T08:00:03;14.00;;;10.17;;
16699;SDS011;8466;52.286;21.124;2024-01-06T08:02:33;15.47;;;10.63;;
16699;SDS011;8466;52.286;21.124;2024-01-06T08:05:01;13.03;;;10.10;;
16699;SDS011;8466;52.286;21.124;2024-01-06T08:07:30;14.17;;;9.67;;
16699;SDS011;8466;52.286;21.124;2024-01-06T08:09:59;13.03;;;9.63;;
16699;SDS011;8466;52.286;21.124;2024-01-06T08:12:33;14.68;;;11.75;;
16699;SDS011;8466;52.286;21.124;2024-01-06T08:15:02;14.73;;;11.00;;
16699;SDS011;8466;52.286;21.124;2024-01-06T08:17:31;13.53;;;9.90;;
16699;SDS011;8466;52.286;21.124;2024-01-06T08:20:00;11.50;;;8.70;;
16699;SDS011;8466;52.286;21.124;2024-01-06T08:22:30;12.60;;;11.05;;
16699;SDS011;8466;52.286;21.124;2024-01-06T08:24:59;13.13;;;10.17;;
16699;SDS011;8466;52.286;21.124;2024-01-06T08:27:28;11.87;;;9.67;;
16699;SDS011;8466;52.286;21.124;2024-01-06T08:30:02;11.60;;;9.30;;
16699;SDS011;8466;52.286;21.124;2024-01-06T08:32:31;12.40;;;9.40;;
16699;SDS011;8466;52.286;21.124;2024-01-06T08:35:00;14.33;;;9.37;;
16699;SDS011;8466;52.286;21.124;2024-01-06T08:37:30;12.10;;;9.30;;
16699;SDS011;8466;52.286;21.124;2024-01-06T08:39:59;12.10;;;9.10;;
16699;SDS011;8466;52.286;21.124;2024-01-06T08:42:30;14.17;;;9.67;;
16699;SDS011;8466;52.286;21.124;2024-01-06T08:44:58;11.63;;;9.37;;
16699;SDS011;8466;52.286;21.124;2024-01-06T08:47:29;12.97;;;9.10;;
16699;SDS011;8466;52.286;21.124;2024-01-06T08:49:58;13.77;;;10.37;;
16699;SDS011;8466;52.286;21.124;2024-01-06T08:52:27;14.07;;;10.20;;
16699;SDS011;8466;52.286;21.124;2024-01-06T08:54:55;14.33;;;9.90;;
16699;SDS011;8466;52.286;21.124;2024-01-06T08:57:24;14.03;;;9.77;;
16699;SDS011;8466;52.286;21.124;2024-01-06T08:59:53;12.87;;;9.40;;
16699;SDS011;8466;52.286;21.124;2024-01-06T09:02:22;14.60;;;10.10;;
16699;SDS011;8466;52.286;21.124;2024-01-06T09:04:54;13.43;;;9.53;;
16699;SDS011;8466;52.286;21.124;2024-01-06T09:07:22;11.50;;;9.00;;
16699;SDS011;8466;52.286;21.124;2024-01-06T09:09:51;14.20;;;9.60;;
16699;SDS011;8466;52.286;21.124;2024-01-06T09:12:23;13.87;;;8.97;;
16699;SDS011;8466;52.286;21.124;2024-01-06T09:14:51;11.73;;;8.20;;
16699;SDS011;8466;52.286;21.124;2024-01-06T09:17:20;12.00;;;8.73;;
16699;SDS011;8466;52.286;21.124;2024-01-06T09:19:49;12.10;;;8.80;;
16699;SDS011;8466;52.286;21.124;2024-01-06T09:22:22;12.13;;;8.37;;
16699;SDS011;8466;52.286;21.124;2024-01-06T09:24:50;11.53;;;8.70;;
16699;SDS011;8466;52.286;21.124;2024-01-06T09:27:20;9.73;;;7.53;;
16699;SDS011;8466;52.286;21.124;2024-01-06T09:29:49;11.60;;;8.33;;
16699;SDS011;8466;52.286;21.124;2024-01-06T09:32:18;10.73;;;8.07;;
16699;SDS011;8466;52.286;21.124;2024-01-06T09:34:49;13.00;;;9.20;;
16699;SDS011;8466;52.286;21.124;2024-01-06T09:37:19;12.03;;;8.93;;
16699;SDS011;8466;52.286;21.124;2024-01-06T09:39:50;10.97;;;8.30;;
16699;SDS011;8466;52.286;21.124;2024-01-06T09:42:19;11.50;;;8.80;;
16699;SDS011;8466;52.286;21.124;2024-01-06T09:44:48;11.00;;;8.13;;
16699;SDS011;8466;52.286;21.124;2024-01-06T09:47:18;11.63;;;8.57;;
16699;SDS011;8466;52.286;21.124;2024-01-06T09:49:50;10.13;;;8.33;;
16699;SDS011;8466;52.286;21.124;2024-01-06T09:52:22;13.43;;;8.77;;
16699;SDS011;8466;52.286;21.124;2024-01-06T09:54:54;11.03;;;8.33;;
16699;SDS011;8466;52.286;21.124;2024-01-06T09:57:24;10.30;;;7.90;;
16699;SDS011;8466;52.286;21.124;2024-01-06T09:59:56;11.80;;;8.27;;
16699;SDS011;8466;52.286;21.124;2024-01-06T10:02:26;13.60;;;8.50;;
16699;SDS011;8466;52.286;21.124;2024-01-06T10:04:58;8.93;;;7.07;;
16699;SDS011;8466;52.286;21.124;2024-01-06T10:07:28;12.37;;;7.83;;
16699;SDS011;8466;52.286;21.124;2024-01-06T10:10:00;12.97;;;7.70;;
16699;SDS011;8466;52.286;21.124;2024-01-06T10:12:30;10.80;;;7.97;;
16699;SDS011;8466;52.286;21.124;2024-01-06T10:14:59;12.83;;;7.43;;
16699;SDS011;8466;52.286;21.124;2024-01-06T10:17:31;11.93;;;8.03;;
16699;SDS011;8466;52.286;21.124;2024-01-06T10:20:01;10.10;;;7.93;;
16699;SDS011;8466;52.286;21.124;2024-01-06T10:22:32;9.57;;;7.67;;
16699;SDS011;8466;52.286;21.124;2024-01-06T10:25:08;10.53;;;7.90;;
16699;SDS011;8466;52.286;21.124;2024-01-06T10:27:39;11.43;;;8.00;;
16699;SDS011;8466;52.286;21.124;2024-01-06T10:30:10;9.53;;;7.57;;
16699;SDS011;8466;52.286;21.124;2024-01-06T10:32:45;10.90;;;8.17;;
16699;SDS011;8466;52.286;21.124;2024-01-06T10:35:14;12.13;;;7.93;;
16699;SDS011;8466;52.286;21.124;2024-01-06T10:37:43;12.73;;;8.07;;
16699;SDS011;8466;52.286;21.124;2024-01-06T10:40:15;11.03;;;8.27;;
16699;SDS011;8466;52.286;21.124;2024-01-06T10:42:44;10.17;;;7.60;;
16699;SDS011;8466;52.286;21.124;2024-01-06T10:45:13;10.73;;;8.03;;
16699;SDS011;8466;52.286;21.124;2024-01-06T10:47:42;10.18;;;9.07;;
16699;SDS011;8466;52.286;21.124;2024-01-06T10:50:11;11.47;;;8.50;;
16699;SDS011;8466;52.286;21.124;2024-01-06T10:52:41;11.43;;;9.07;;
16699;SDS011;8466;52.286;21.124;2024-01-06T10:55:11;11.60;;;8.90;;
16699;SDS011;8466;52.286;21.124;2024-01-06T10:57:44;11.07;;;8.40;;
16699;SDS011;8466;52.286;21.124;2024-01-06T11:00:14;11.63;;;8.40;;
16699;SDS011;8466;52.286;21.124;2024-01-06T11:02:43;12.07;;;9.07;;
16699;SDS011;8466;52.286;21.124;2024-01-06T11:05:14;12.67;;;9.40;;
16699;SDS011;8466;52.286;21.124;2024-01-06T11:07:43;11.73;;;8.17;;
16699;SDS011;8466;52.286;21.124;2024-01-06T11:10:14;12.07;;;8.70;;
16699;SDS011;8466;52.286;21.124;2024-01-06T11:12:46;12.13;;;8.67;;
16699;SDS011;8466;52.286;21.124;2024-01-06T11:15:42;11.73;;;7.63;;
16699;SDS011;8466;52.286;21.124;2024-01-06T11:18:30;13.40;;;8.70;;
16699;SDS011;8466;52.286;21.124;2024-01-06T11:21:16;13.50;;;8.63;;
16699;SDS011;8466;52.286;21.124;2024-01-06T11:24:12;12.97;;;8.27;;
16699;SDS011;8466;52.286;21.124;2024-01-06T11:26:43;12.05;;;9.85;;
16699;SDS011;8466;52.286;21.124;2024-01-06T11:29:14;11.53;;;8.63;;
16699;SDS011;8466;52.286;21.124;2024-01-06T11:31:43;12.40;;;8.23;;
16699;SDS011;8466;52.286;21.124;2024-01-06T11:34:43;10.17;;;7.20;;
16699;SDS011;8466;52.286;21.124;2024-01-06T11:37:20;11.23;;;7.30;;
16699;SDS011;8466;52.286;21.124;2024-01-06T11:39:51;11.07;;;7.50;;
16699;SDS011;8466;52.286;21.124;2024-01-06T11:42:21;11.20;;;7.67;;
16699;SDS011;8466;52.286;21.124;2024-01-06T11:45:03;10.63;;;7.23;;
16699;SDS011;8466;52.286;21.124;2024-01-06T11:47:56;9.27;;;7.27;;
16699;SDS011;8466;52.286;21.124;2024-01-06T11:50:36;8.97;;;6.77;;
16699;SDS011;8466;52.286;21.124;2024-01-06T11:53:21;9.30;;;6.40;;
16699;SDS011;8466;52.286;21.124;2024-01-06T11:56:06;9.67;;;7.43;;
16699;SDS011;8466;52.286;21.124;2024-01-06T11:58:57;10.17;;;6.77;;
16699;SDS011;8466;52.286;21.124;2024-01-06T12:01:38;10.27;;;6.67;;
16699;SDS011;8466;52.286;21.124;2024-01-06T12:04:17;8.55;;;7.63;;
16699;SDS011;8466;52.286;21.124;2024-01-06T12:06:49;9.70;;;7.67;;
16699;SDS011;8466;52.286;21.124;2024-01-06T12:09:18;7.97;;;6.13;;
16699;SDS011;8466;52.286;21.124;2024-01-06T12:11:47;8.20;;;5.90;;
16699;SDS011;8466;52.286;21.124;2024-01-06T12:14:15;10.73;;;6.30;;
16699;SDS011;8466;52.286;21.124;2024-01-06T12:16:46;9.73;;;6.03;;
16699;SDS011;8466;52.286;21.124;2024-01-06T12:19:15;7.60;;;5.40;;
16699;SDS011;8466;52.286;21.124;2024-01-06T12:21:44;8.77;;;5.80;;
16699;SDS011;8466;52.286;21.124;2024-01-06T12:24:14;6.17;;;4.90;;
16699;SDS011;8466;52.286;21.124;2024-01-06T12:26:47;6.37;;;4.73;;
16699;SDS011;8466;52.286;21.124;2024-01-06T12:29:17;6.27;;;4.60;;
16699;SDS011;8466;52.286;21.124;2024-01-06T12:31:51;6.33;;;5.03;;
16699;SDS011;8466;52.286;21.124;2024-01-06T12:34:20;6.13;;;5.00;;
16699;SDS011;8466;52.286;21.124;2024-01-06T12:36:52;7.90;;;5.60;;
16699;SDS011;8466;52.286;21.124;2024-01-06T12:39:22;7.43;;;5.80;;
16699;SDS011;8466;52.286;21.124;2024-01-06T12:41:55;9.13;;;5.33;;
16699;SDS011;8466;52.286;21.124;2024-01-06T12:44:26;7.83;;;5.13;;
16699;SDS011;8466;52.286;21.124;2024-01-06T12:46:56;8.37;;;5.53;;
16699;SDS011;8466;52.286;21.124;2024-01-06T12:49:25;6.53;;;5.00;;
16699;SDS011;8466;52.286;21.124;2024-01-06T12:51:54;8.53;;;5.67;;
16699;SDS011;8466;52.286;21.124;2024-01-06T12:54:23;7.43;;;5.30;;
16699;SDS011;8466;52.286;21.124;2024-01-06T12:56:52;11.87;;;8.80;;
16699;SDS011;8466;52.286;21.124;2024-01-06T12:59:21;13.07;;;9.00;;
16699;SDS011;8466;52.286;21.124;2024-01-06T13:01:50;9.32;;;7.03;;
16699;SDS011;8466;52.286;21.124;2024-01-06T13:04:20;9.67;;;7.30;;
16699;SDS011;8466;52.286;21.124;2024-01-06T13:06:51;9.97;;;6.83;;
16699;SDS011;8466;52.286;21.124;2024-01-06T13:09:20;8.30;;;6.85;;
16699;SDS011;8466;52.286;21.124;2024-01-06T13:11:50;8.10;;;7.00;;
16699;SDS011;8466;52.286;21.124;2024-01-06T13:14:19;11.73;;;6.93;;
16699;SDS011;8466;52.286;21.124;2024-01-06T13:16:48;9.03;;;6.20;;
16699;SDS011;8466;52.286;21.124;2024-01-06T13:19:17;11.20;;;7.53;;
16699;SDS011;8466;52.286;21.124;2024-01-06T13:21:50;10.67;;;6.43;;
16699;SDS011;8466;52.286;21.124;2024-01-06T13:24:19;9.13;;;6.20;;
16699;SDS011;8466;52.286;21.124;2024-01-06T13:26:50;10.03;;;6.83;;
16699;SDS011;8466;52.286;21.124;2024-01-06T13:29:19;8.47;;;6.37;;
16699;SDS011;8466;52.286;21.124;2024-01-06T13:31:47;9.40;;;6.47;;
16699;SDS011;8466;52.286;21.124;2024-01-06T13:34:20;8.80;;;6.03;;
16699;SDS011;8466;52.286;21.124;2024-01-06T13:36:52;8.50;;;6.27;;
16699;SDS011;8466;52.286;21.124;2024-01-06T13:39:23;8.07;;;5.40;;
16699;SDS011;8466;52.286;21.124;2024-01-06T13:41:54;6.53;;;5.00;;
16699;SDS011;8466;52.286;21.124;2024-01-06T13:44:23;7.57;;;5.63;;
16699;SDS011;8466;52.286;21.124;2024-01-06T13:46:52;7.70;;;4.60;;
16699;SDS011;8466;52.286;21.124;2024-01-06T13:49:21;8.67;;;5.27;;
16699;SDS011;8466;52.286;21.124;2024-01-06T13:51:50;6.13;;;4.90;;
16699;SDS011;8466;52.286;21.124;2024-01-06T13:54:20;6.63;;;4.73;;
16699;SDS011;8466;52.286;21.124;2024-01-06T13:56:49;5.47;;;4.23;;
16699;SDS011;8466;52.286;21.124;2024-01-06T13:59:18;4.73;;;3.57;;
16699;SDS011;8466;52.286;21.124;2024-01-06T14:01:47;7.17;;;4.57;;
16699;SDS011;8466;52.286;21.124;2024-01-06T14:04:16;7.10;;;4.23;;
16699;SDS011;8466;52.286;21.124;2024-01-06T14:06:45;8.00;;;4.80;;
16699;SDS011;8466;52.286;21.124;2024-01-06T14:09:16;5.50;;;4.33;;
16699;SDS011;8466;52.286;21.124;2024-01-06T14:11:44;7.07;;;4.40;;
16699;SDS011;8466;52.286;21.124;2024-01-06T14:14:13;6.00;;;4.50;;
16699;SDS011;8466;52.286;21.124;2024-01-06T14:16:42;6.53;;;4.17;;
16699;SDS011;8466;52.286;21.124;2024-01-06T14:19:13;5.90;;;4.80;;
16699;SDS011;8466;52.286;21.124;2024-01-06T14:21:44;5.37;;;4.10;;
16699;SDS011;8466;52.286;21.124;2024-01-06T14:24:13;6.10;;;4.37;;
16699;SDS011;8466;52.286;21.124;2024-01-06T14:26:45;8.77;;;5.00;;
16699;SDS011;8466;52.286;21.124;2024-01-06T14:29:14;8.32;;;5.30;;
16699;SDS011;8466;52.286;21.124;2024-01-06T14:31:43;7.03;;;4.60;;
16699;SDS011;8466;52.286;21.124;2024-01-06T14:34:12;9.50;;;5.73;;
16699;SDS011;8466;52.286;21.124;2024-01-06T14:36:41;8.70;;;5.70;;
16699;SDS011;8466;52.286;21.124;2024-01-06T14:39:16;8.07;;;5.50;;
16699;SDS011;8466;52.286;21.124;2024-01-06T14:41:48;6.10;;;4.80;;
16699;SDS011;8466;52.286;21.124;2024-01-06T14:44:18;8.02;;;5.50;;
16699;SDS011;8466;52.286;21.124;2024-01-06T14:46:47;8.73;;;5.50;;
16699;SDS011;8466;52.286;21.124;2024-01-06T14:49:17;7.30;;;5.72;;
16699;SDS011;8466;52.286;21.124;2024-01-06T14:51:46;7.20;;;4.83;;
16699;SDS011;8466;52.286;21.124;2024-01-06T14:54:14;10.10;;;5.50;;
16699;SDS011;8466;52.286;21.124;2024-01-06T14:56:44;7.60;;;4.47;;
16699;SDS011;8466;52.286;21.124;2024-01-06T14:59:13;7.57;;;5.30;;
16699;SDS011;8466;52.286;21.124;2024-01-06T15:01:45;6.93;;;5.07;;
16699;SDS011;8466;52.286;21.124;2024-01-06T15:04:15;7.60;;;4.93;;
16699;SDS011;8466;52.286;21.124;2024-01-06T15:06:45;7.23;;;4.60;;
16699;SDS011;8466;52.286;21.124;2024-01-06T15:09:16;7.13;;;4.50;;
16699;SDS011;8466;52.286;21.124;2024-01-06T15:11:46;6.73;;;4.07;;
16699;SDS011;8466;52.286;21.124;2024-01-06T15:14:15;6.63;;;4.63;;